arxmliv
arxmliv build tool
 
KWARC group
LaTeXML
About
   
 

Detailed info

Back to Homepage

List of missing_macros

No. Date Filename num_warningnum_errornum_xmargok_xmargnum_xmathok_xmathMissing macros
92801 2013-03-13 05:29:29 /0806/0806.2934 520000[\psfrag]; 1 missing file[xy.sty].
92802 2013-03-13 05:29:25 /0806/0806.2923 14160000[{qcorollary}, \abs, \N, {ass}, {qlemma}, \theappendix, {fact}, {qproposition}, {prf}, \ipttexpic, \Z, {qtheorem}, \allowdisplaybreaks, \text]; 1 missing file[macros.sty].
92803 2013-03-13 05:29:05 /0806/0806.2791 720110000[Align, \xyoption, \xymatrix, \ar]; 1 missing file[xy.sty].
92804 2013-03-13 05:28:55 /0806/0806.2929 010000[\psfrag].
92805 2013-03-13 05:28:54 /0806/0806.2924 620000[\authorblockN, {keywords}]; 1 missing file[IEEEtran.cls].
92806 2013-03-13 05:28:20 /0806/0806.2908 18290000[\sud, {theoint}, \fGamma, \N, \scal, \Nice, {merci}, {notations}, \C, \nmid, \dd, \Schwartz, {remark}, \scalst, \url, {proposition}, \PP, \prim, \abs, \Q, {remint}, \R, {hypothesis}, \St, \prem, \Hy, \Eh, \sym]; 1 missing file[riro.sty].
92807 2013-03-13 05:28:18 /0806/0806.2918 170000[\resume, \extrasenglish, \suspend, \dateenglish, \captionsenglish]; 1 missing file[mdwlist.sty].
92808 2013-03-13 05:27:46 /0806/0806.2892 440000[\pacs, \shorttitle, \shortauthor, \institute]; 1 missing file[epl2.cls].
92809 2013-03-13 05:27:35 /0806/0806.2891 080000[\affil, \session, \shorttitle, \shortauthor, \acknowledgements]; 1 missing file[xrb2007.sty].
92810 2013-03-13 05:27:32 /0806/0806.2889 29200000[\co, \figref, \consref, \thmref, \ineqref, \psfrag, \secref, \text, {defn}, {thm}, {lem}, \lemref, {cor}, {cons}, {prop}, \propref, {rem}, {lemnp}, {proof}]; 1 missing file[pbmath.sty].
92811 2013-03-13 05:27:18 /0806/0806.2885 310000[\setkeys].
92812 2013-03-13 05:27:05 /0806/0806.2887 310000[{acknowledgements}]; 1 missing file[tgfinal.cls].
92813 2013-03-13 05:27:03 /0806/0806.2869 1610000[\slashed].
92814 2013-03-13 05:26:48 /0806/0806.2872 110000[\citeauthoryear].
92815 2013-03-13 05:26:40 /0806/0806.2878 19290000[\maketitle, \affiliation, \volume, \loadboldmathnames, \begintopmatter, \NewMathAlphabet, \begintable, \shorttitle, \abstract, \caption, \pageoffset, \NewTextAlphabet, \author, \endrefs, \pubyear, \beginrefs, \section, \endtable, \tabletext, \shortauthor
92816 2013-03-13 05:26:17 /0806/0806.2828 8240000[Align, \xymatrix, \ar]; 1 missing file[xy.sty].
92817 2013-03-13 05:26:16 /0806/0806.2855 940000[Align, \xymatrix, \ar]; 1 missing file[xy.sty].
92818 2013-03-13 05:26:14 /0806/0806.2753 12040000[\curveto, \moveto, \lineto, \newpath].
92819 2013-03-13 05:25:32 /0806/0806.2854 110000[\unit].
92820 2013-03-13 05:25:31 /0806/0806.2837 1910000[\unit].
92821 2013-03-13 05:25:27 /0806/0806.2835 020000[\jcap, \na].
92822 2013-03-13 05:25:19 /0806/0806.2824 1040000[\pinlabel, \endlabellist, \labellist]; 1 missing file[pinlabel.sty].
92823 2013-03-13 05:25:07 /0806/0806.2838 1140000[\address, \keywords].
92824 2013-03-13 05:23:57 /0806/0806.2812 14800000[{fmffile}, {fmfgraph}, \fmf, \fmfbottom, \fmftop, \fmfv, {fmfgraph*}, \fmfleft, \fmfright, \fmfstraight].
92825 2013-03-13 05:23:31 /0806/0806.2803 120000[\email, \affiliation]; 1 missing file[qm2008_abs.cls].
92826 2013-03-13 05:22:56 /0806/0806.2798 010000[\psfrag].
92827 2013-03-13 05:22:46 /0806/0806.2796 170000[\a, \firstsection, \editors, \jname, \pagerange, \volume, \pubyear]; 1 missing file[IAU-TrA.cls].
92828 2013-03-13 05:22:42 /0806/0806.2680 674490000[\g, \ccontextPF, \gNode, \lowf, \lang, \Xroot, \Tomit, \solroot, \llparenthesis, \tRoot, \trace, \rattrnsl, \iosqprdx, \slabrel, \bgNode, {shaded}, \stepright, \gNodes, \lemp, \gEdge, \low, \TOon, \solexp, \agNode, \DeclareFixedFootnote, \iosqprdxr, \gi,
92829 2013-03-13 05:22:37 /0806/0806.2773 020000[\theappendix].
92830 2013-03-13 05:21:59 /0806/0806.2779 17100000[Align, \psmatrix, \endpsmatrix]; 2 missing files[pst-tree.sty, newalg.sty].
92831 2013-03-13 05:21:30 /0806/0806.2776 180000[{addendum}, {affiliations}]; 1 missing file[nature.cls].
92832 2013-03-13 05:21:23 /0806/0806.2734 7710000[\subref].
92833 2013-03-13 05:21:15 /0806/0806.2748 10170000[\RRresume, \titlehead, \RRprojet, \RRtitle, \makeRR, \RRetitle, \thanksref, \RRauthor, \RRtheme, \THNum, \authorhead, \RRabstract, \RRdate, \RCBordeaux, \RRmotcle, \RRkeyword]; 1 missing file[RR.sty].
92834 2013-03-13 05:20:34 /0806/0806.2737 030000[\kword, \abst, \inst].
92835 2013-03-13 05:20:34 /0806/0806.2739 0220000[\mathds, \arraybackslash].
92836 2013-03-13 05:20:23 /0806/0806.2696 7570000[Align, \xymatrix, \ar]; 2 missing files[ot2.fontmap, xy.sty].
92837 2013-03-13 05:20:10 /0806/0806.2736 640000[{theacknowledgments}, \layoutstyle, \classification]; 1 missing file[{aipcheck}].
92838 2013-03-13 05:19:58 /0806/0806.2729 10540000[Align, \xymatrix, \ar]; 1 missing file[xy.sty].
92839 2013-03-13 05:19:47 /0806/0806.2704 4540000[Align, \xymatrix, \ar]; 1 missing file[xy.sty].
92840 2013-03-13 05:19:36 /0806/0806.2722 180000[\firstsection, \editors, \affiliation, \jname, \pagerange, \keywords, \volume, \pubyear]; 1 missing file[iaus1.cls].
92841 2013-03-13 05:19:11 /0806/0806.2702 680000[\noextrasitalian, \noextrasenglish, \extrasitalian, \dateitalian, \dateenglish, \extrasenglish, \captionsitalian, \captionsenglish].
92842 2013-03-13 05:19:07 /0806/0806.2701 830000[\address, \gtrsim, \keywords]; 1 missing file[ws-jnopm.cls].
92843 2013-03-13 05:19:01 /0806/0806.2707 2620000[\mathbb]; 2 missing files[marvosym.sty, patmorin.cls].
92844 2013-03-13 05:18:51 /0806/0806.2693 1610000[\Text].
92845 2013-03-13 05:18:50 /0806/0806.2700 2110000[\citeauthoryear, \citeyear, \institute, \runningtitle, {opening}, {article}, {acks}, \keywords, \email, \runningauthor]; 2 missing files[spr-sola-addons.sty, SolarPhysics.cls].
92846 2013-03-13 05:18:40 /0806/0806.2709 6210000[\captionb, {keywords}, \titlehead, \References, {authorl}, \titleb, \authorb, \addressb, \sectionb, \hstrut, \hhuad, \lstrut, \subsectionb, \refb, \ts, \resthead, \tablerule, {addressl}]; 1 missing file[baltlat6.sty].
92847 2013-03-13 05:18:34 /0806/0806.2708 010000[\theappendix].
92848 2013-03-13 05:18:27 /0806/0806.2688 2680000[\frqq, Align, \xymatrix, \ar, \CompileMatrices, \flqq]; 2 missing files[xy.sty, header].
92849 2013-03-13 05:18:23 /0806/0806.2691 420000[\subfloat, \subref].
92850 2013-03-13 05:18:05 /0806/0806.2698 22100000[\Line, \DashArrowLine, \ArrowLine, \Text, \Vertex, \DashCArc, \DashArrowArcn, \DashArrowArc, \CArc, \DashLine].
92851 2013-03-13 05:18:04 /0806/0806.2674 14980000[\authorblockN, \authorrefmark, \authorblockA, \psfrag]; 1 missing file[IEEEtran.cls].
92852 2013-03-13 05:18:00 /0806/0806.2629 520000[\onllongtab]; 1 missing file[aalongtable.sty].
92853 2013-03-13 05:17:54 /0806/0806.2685 0130000[\extrasenglish, {listing}, \dateenglish, \captionsenglish]; 1 missing file[listing.sty].
92854 2013-03-13 05:17:48 /0806/0806.2682 140000[\extrasenglish, {proof}, \dateenglish, \captionsenglish]; 1 missing file[IEEEtran.cls].
92855 2013-03-13 05:17:28 /0806/0806.2669 2910000[\@end@institute].
92856 2013-03-13 05:17:20 /0806/0806.2676 4240000[Align, \xymatrix, \ar]; 1 missing file[xy.sty].
92857 2013-03-13 05:17:09 /0806/0806.2684 690000[\mathbold, \subref]; 1 missing file[fixmath.sty].
92858 2013-03-13 05:16:45 /0806/0806.2672 030000[\extrasenglish, \dateenglish, \captionsenglish].
92859 2013-03-13 05:15:35 /0806/0806.2646 13190000[{keywords}, \mathbb, \firstpageno, \citep, \editor, \jmlrheading, \name, \ShortHeadings, \includegraphics, \email, \acks, \citeauthor, \addr, \citet, {proof}, \AND]; 1 missing file[jmlr2e.sty].
92860 2013-03-13 05:15:06 /0806/0806.2656 090000[\includegraphics, \pra, \prl]; 1 missing file[ol2.sty].
92861 2013-03-13 05:14:57 /0806/0806.2643 2810000[{keywords}]; 1 missing file[IEEEtran.cls].
92862 2013-03-13 05:13:53 /0806/0806.2630 280000[\sodauthor, \rauthor, \address, \sodtitle, \dates, \lat, \PACS, \rtitle].
92863 2013-03-13 05:13:40 /0806/0806.2619 340000[\address, \runningheads, {Abstract}, {start}]; 1 missing file[lt7-proc.cls].
92864 2013-03-13 05:13:30 /0806/0806.2620 030000[\extrasenglish, \dateenglish, \captionsenglish].
92865 2013-03-13 05:13:25 /0806/0806.2612 22130000[Align, {xy}, \restore, \save, \dir, \xymatrix, \ar]; 2 missing files[shadow.sty, xy.sty].
92866 2013-03-13 05:13:24 /0806/0806.2605 040000[\extrasenglish, \dateenglish, \captionsenglish]; 1 missing file[xy.sty].
92867 2013-03-13 05:13:15 /0806/0806.2622 050000[\includegraphics, \address]; 1 missing file[ol2.sty].
92868 2013-03-13 05:13:06 /0806/0806.2531 7610000[\slashed].
92869 2013-03-13 05:12:25 /0806/0806.2584 32620000[\yng, \underaccent].
92870 2013-03-13 05:12:12 /0806/0806.2559 12310000[\pdfbookmark].
92871 2013-03-13 05:12:04 /0806/0806.2586 4020000[{turn}].
92872 2013-03-13 05:11:56 /0806/0806.2567 340000[Align, \xymatrix, \ar]; 1 missing file[xy.sty].
92873 2013-03-13 05:11:19 /0806/0806.2558 19150000[\Text, \ArrowLine, \DashCArc, \Photon, \PhotonArc].
92874 2013-03-13 05:11:00 /0806/0806.2568 220000[\ack, \ead].
92875 2013-03-13 05:11:00 /0806/0806.2572 8100000[{keywords}]; 10 missing files[xycurve.sty, xymatrix.sty, xyline.sty, xyarrow.sty, xycmtip.sty, xycolor.sty, xyrotate.sty, IEEEtran.cls, xyframe.sty, xygraph.sty].
92876 2013-03-13 05:10:43 /0806/0806.2551 1110000[\theappendix].
92877 2013-03-13 05:10:43 /0806/0806.2575 280000[\firstsection, \editors, \affiliation, \jname, \pagerange, \keywords, \volume, \pubyear]; 1 missing file[iaus.cls].
92878 2013-03-13 05:10:33 /0806/0806.2560 430000[{theacknowledgments}, \layoutstyle, \classification].
92879 2013-03-13 05:10:32 /0806/0806.2565 430000[\slashed, \apprge, \apprle].
92880 2013-03-13 05:10:16 /0806/0806.2566 030000[\ack, \Tr, \ead].
92881 2013-03-13 05:10:01 /0806/0806.2548 5990000[{algorithm}, {example}, \lbK, {proposition}, {align*}, \Domain, \ISet, Align, \previousFloat, \Var, \midpointK, \RSet, \eqref, \algoInitCounter, \bench, \implies, \subfigure, \REM, \simd, \RndUp, \FunT, \KWD, \text, \nbsymb, \ACTR, \best, \RndDn, \NA, \v
92882 2013-03-13 05:09:49 /0806/0806.2527 1010000[\date].
92883 2013-03-13 05:09:43 /0806/0806.2532 110000[\onllongtab].
92884 2013-03-13 05:09:32 /0806/0806.2556 350000[{history}, \revised, \text, \refcite, \received].
92885 2013-03-13 05:09:24 /0806/0806.2520 16440000[Align, \xymatrix, \ar]; 1 missing file[xy.sty].
92886 2013-03-13 05:08:47 /0806/0806.2524 010000[\address].
92887 2013-03-13 05:08:29 /0806/0806.2480 42790000[\setplotarea, \!ybot, \!xleft, \!picbox, \!xright, \!ytop, \plot, \setcoordinatesystem].
92888 2013-03-13 05:08:19 /0806/0806.2513 110000[{keywords}]; 1 missing file[IEEEtran.cls].
92889 2013-03-13 05:08:16 /0806/0806.2534 130000[\address, \keywords]; 1 missing file[jeosman.sty].
92890 2013-03-13 05:07:31 /0806/0806.2507 250000[\psfrag, {psfrags}].
92891 2013-03-13 05:06:59 /0806/0806.2473 3980000[\rrbracket, \llbracket].
92892 2013-03-13 05:06:45 /0806/0806.2448 956200000[\lsuper, \theoremstyle, \lmcsheading, \keywords, \address, \thethm, \rsuper, \email, \subjclass, {proof}]; 4 missing files[psboxit.sty, capt-of.sty, pslatex.sty, LMCS.cls].
92893 2013-03-13 05:05:25 /0806/0806.2481 50310000[\citen].
92894 2013-03-13 05:04:44 /0806/0806.2479 420000[\ack, \ead].
92895 2013-03-13 05:04:34 /0806/0806.2471 210000[\theappendix].
92896 2013-03-13 05:03:19 /0806/0806.2456 030000[\extrasenglish, \dateenglish, \captionsenglish].
92897 2013-03-13 05:03:03 /0806/0806.2449 3840000[Align, \xymatrix, \ar]; 1 missing file[xy.sty].
92898 2013-03-13 05:02:59 /0806/0806.2447 305700000[{lemma}, {theorem}, \pdfliteral, \xy, \normalshape, {example}, \endxy, {remark}, {proposition}, \ar, \inference, \save, \cir, \xymatrix, {keyword}, \frm, {definition}, \POS, \restore, \dir, {frontmatter}, {proof}, {note}]; 3 missing files[prentcsmacro.st
92899 2013-03-13 05:02:53 /0806/0806.2443 750000[\theappendix, \\, \cite, \title, \author].
92900 2013-03-13 05:02:16 /0806/0806.2372 62060000[\drawline, \cutpage, \dashline, \addressemail, \arxurl]; 1 missing file[xy.sty].
92901 2013-03-13 05:02:08 /0806/0806.2429 120000[\ack, \ead].
92902 2013-03-13 05:01:57 /0806/0806.2435 1110000[\inst, \mailto, \institute, \offprints, \keywords, \email, \volnopage, \titlerunning, \authorrunning, {acknowledgements}]; 1 missing file[chjaa.cls].
92903 2013-03-13 05:01:36 /0806/0806.2421 010000[\psfrag].
92904 2013-03-13 05:01:24 /0806/0806.2427 730000[\DeclareBoldMathCommand, \bfmu].
92905 2013-03-13 05:00:17 /0806/0806.2370 7010000[\ihead].
92906 2013-03-13 05:00:14 /0806/0806.2408 030000[\ack, \SUST, \ead].
92907 2013-03-13 04:59:43 /0806/0806.2401 6170000[\xymatrix, \ar]; 1 missing file[xy.sty].
92908 2013-03-13 04:59:20 /0806/0806.2402 210000[\ion].
92909 2013-03-13 04:58:54 /0806/0806.2405 3660000[\affil, \plotone, \plotfiddle]; 1 missing file[asp2006.sty].
92910 2013-03-13 04:58:07 /0806/0806.2345 2520000[{proof}]; 2 missing files[afterpage.sty, IEEEtran.cls].
92911 2013-03-13 04:57:59 /0806/0806.2374 020000[\ack, \ead].
92912 2013-03-13 04:57:58 /0806/0806.2361 680000[\institute, \frontmatter, \tocauthor, \proof, {keywordname}, \email, \titlerunning, \authorrunning]; 1 missing file[llncs1.cls].
92913 2013-03-13 04:57:44 /0806/0806.2380 130000[{theacknowledgments}, \layoutstyle, \classification].
92914 2013-03-13 04:57:32 /0806/0806.2364 0140000[\Issue, \inst, \Month, \Reviseddate, \Receiveddate, \DOIsuffix, \Volume, \keywords, \pagespan, \subjclass, \Dateposted, \Year, \Accepteddate, {acknowledgement}].
92915 2013-03-13 04:57:26 /0806/0806.2337 33160000[{theorem}, \EmailD, \pdfbookmark, \LastPageEnding, \Classification, \ArticleDates, \AuthorNameForHeading, \Abstract, \ArticleName, \ShortArticleName, \FirstPageHeading, \Address, \Author, {definition}, {corollary}, \Keywords].
92916 2013-03-13 04:56:43 /0806/0806.2355 360000[\keyword, \PACS, \topage, \frompage, \authors]; 1 missing file[spadre2008.sty].
92917 2013-03-13 04:56:11 /0806/0806.2317 2120000[\iddots, {comment}].
92918 2013-03-13 04:56:10 /0806/0806.2328 2110000[\uline].
92919 2013-03-13 04:56:05 /0806/0806.2329 4110000[\setkeys].
92920 2013-03-13 04:56:02 /0806/0806.2348 360000[\setkomafont, \setheadsepline, \ifoot, \rohead, \ofoot, \lehead]; 1 missing file[scrartcl.cls].
92921 2013-03-13 04:55:47 /0806/0806.2331 510000[\marginsize].
92922 2013-03-13 04:54:06 /0806/0806.2311 020000[\ccode, \catchline].
92923 2013-03-13 04:53:54 /0806/0806.2312 010000[\ead].
92924 2013-03-13 04:53:46 /0806/0806.2291 7150000[\psfrag].
92925 2013-03-13 04:53:30 /0806/0806.2264 14960000[Align, \xymatrix, \ar]; 1 missing file[xy.sty].
92926 2013-03-13 04:53:23 /0806/0806.2272 3780000[Align, {comment}, \dir, \SelectTips, \APLcirc, \xymatrix, \ar]; 1 missing file[xy.sty].
92927 2013-03-13 04:53:13 /0806/0806.2265 860000[Align, \SelectTips, \xymatrix, \newdir, \ar]; 1 missing file[xy.sty].
92928 2013-03-13 04:53:07 /0806/0806.2306 050000[\affil, \reference, {references}, \acknowledgments]; 1 missing file[macroaaa-eng.sty].
92929 2013-03-13 04:52:25 /0806/0806.2248 4230000[\nicefrac].
92930 2013-03-13 04:52:08 /0806/0806.2238 2540000[\Line, \Vertex, \SetWidth, \SetColor].
92931 2013-03-13 04:51:58 /0806/0806.2269 4670000[\includegraphics, \ccode, \catchline, \tbl, \pub, \keywords]; 1 missing file[ws.sty].
92932 2013-03-13 04:51:53 /0806/0806.2267 620000[\backslashbox]; 1 missing file[slashbox.sty].
92933 2013-03-13 04:51:45 /0806/0806.2266 150000[\email, \affiliation]; 2 missing files[qm2008_symb.sty, qm2008_abs.cls].
92934 2013-03-13 04:51:39 /0806/0806.2107 13540000[Align, \xymatrix, \ar]; 1 missing file[xy.sty].
92935 2013-03-13 04:51:37 /0806/0806.2256 23190000[\xyoption, \CompileMatrices]; 2 missing files[xy.sty, mystyle.cls].
92936 2013-03-13 04:51:04 /0806/0806.2247 930000[\slashed, \Braket, \psfrag].
92937 2013-03-13 04:50:54 /0806/0806.2232 1330000[\theappendix, \scite]; 1 missing file[mnras_cite.sty].
92938 2013-03-13 04:50:33 /0806/0806.2236 8120000[\Book, \pacs, \inst, \institute, \onefigure, \acknowledgments, \Publ, \Name, \Year, \REVIEW]; 1 missing file[epl2.cls].
92939 2013-03-13 04:50:32 /0806/0806.2235 0170000[\affil, \apj, \citep, \tableline, \aap, \aapr, \sun, \mnras, Align, \plotone, \citet, \acknowledgements, \plottwo]; 1 missing file[prcsa2008.sty].
92940 2013-03-13 04:50:29 /0806/0806.2225 810000[\address].
92941 2013-03-13 04:50:23 /0806/0806.2214 18110000[\Line, \rText, \LogAxis, \LinAxis, \DashArrowLine, \Text, \ArrowLine, \SetWidth, \SetScale, \DashLine]; 1 missing file[paragraph.sty].
92942 2013-03-13 04:50:18 /0806/0806.2198 70100000[\theappendix, {appendices}, \QEDopen, \proof, {sideways}, \IEEEmembership, \endproof]; 1 missing file[IEEEtran.cls].
92943 2013-03-13 04:50:02 /0806/0806.2209 040000[\DayOfWeek, \daytime]; 2 missing files[dayofweek.sty, daytime.sty].
92944 2013-03-13 04:49:45 /0806/0806.2219 1130000[\kword, \abst, \inst].
92945 2013-03-13 04:49:44 /0806/0806.2200 3370000[\FAVert, \FADiagram, \arXivid, {feynartspicture}, \FALabel, \FAProp].
92946 2013-03-13 04:49:23 /0806/0806.2199 030000[\layoutstyle, \classification]; 1 missing file[{aipcheck}].
92947 2013-03-13 04:49:10 /0806/0806.2188 410000[\theappendix].
92948 2013-03-13 04:49:06 /0806/0806.2192 470000[\comby, \catchline, {history}, \revised, \keywords, \received]; 1 missing file[ws.sty].
92949 2013-03-13 04:48:36 /0806/0806.2186 3240000[\DayOfWeek, \daytime]; 2 missing files[dayofweek.sty, daytime.sty].
92950 2013-03-13 04:48:29 /0806/0806.2197 230000[\kword, \abst, \inst].
92951 2013-03-13 04:48:23 /0806/0806.2160 3110000[\save, \xymatrix, \xy, \frm, \POS, \endxy, Align, \restore, \dir, \ar]; 1 missing file[xy.sty].
92952 2013-03-13 04:48:21 /0806/0806.2172 1250000[\psfrag]; 1 missing file[flafter.sty].
92953 2013-03-13 04:47:58 /0806/0806.2166 130000[{theacknowledgments}, \layoutstyle, \classification].
92954 2013-03-13 04:47:45 /0806/0806.2176 610000[\mathfrak].
92955 2013-03-13 04:47:44 /0806/0806.2164 230000[Align, \xymatrix, \ar].
92956 2013-03-13 04:47:18 /0806/0806.2174 080000[\includegraphics, \catchline, {history}, {romanlist}, \revised, \received].
92957 2013-03-13 04:47:09 /0806/0806.2125 910000[{comment}].
92958 2013-03-13 04:47:01 /0806/0806.2165 440000[Align, \xymatrix, \ar]; 1 missing file[xy.sty].
92959 2013-03-13 04:46:57 /0806/0806.2142 010000[\theappendix].
92960 2013-03-13 04:46:37 /0806/0806.2147 720000[\celsius]; 1 missing file[gensymb.sty].
92961 2013-03-13 04:46:29 /0806/0806.2140 3640000[\citeauthoryear, \citeyear]; 2 missing files[chicagor.sty, aaai1.sty].
92962 2013-03-13 04:46:21 /0806/0806.2134 010000[\ead].
92963 2013-03-13 04:46:16 /0806/0806.2133 1110000[{acknowledgments}, \lesssim, \FullConference, \ShortTitle, \includegraphics, \email, \gtrsim, \speaker]; 1 missing file[PoS.cls].
92964 2013-03-13 04:46:16 /0806/0806.2139 560000[\citeauthoryear, \citeyear, \shortcite, \nocopyright]; 2 missing files[chicagor.sty, aaai1.sty].
92965 2013-03-13 04:45:54 /0806/0806.2112 3720000[\afterpage]; 1 missing file[afterpage.sty].
92966 2013-03-13 04:45:43 /0806/0806.2101 2920000[\theappendix]; 1 missing file[xy.sty].
92967 2013-03-13 04:45:38 /0806/0806.2128 460000[\pacs, \inst, \shorttitle, \institute, \onefigure, \acknowledgments]; 1 missing file[epl2.cls].
92968 2013-03-13 04:45:31 /0806/0806.2111 3110000[\ccode, \catchline, {history}, {romanlist}, \psfig, \keywords, \received]; 1 missing file[ws.sty].
92969 2013-03-13 04:45:21 /0806/0806.2117 110000[\psfrag].
92970 2013-03-13 04:45:01 /0806/0806.2084 2820000[\iddots].
92971 2013-03-13 04:44:41 /0806/0806.2109 020000[\ack, \ead].
92972 2013-03-13 04:43:58 /0806/0806.2082 350000[\address, \epsfbox, \pacs, \epsfxsize, \keywords].
92973 2013-03-13 04:43:37 /0806/0806.2025 4040000[Align, \xymatrix, \ar]; 1 missing file[xy.sty].
92974 2013-03-13 04:43:30 /0806/0806.2059 3360000[\text].
92975 2013-03-13 04:43:10 /0806/0806.2062 030000[\extrasenglish, \dateenglish, \captionsenglish].
92976 2013-03-13 04:43:06 /0806/0806.2060 0160000[\aap, \extrasenglish, \SetYear, \shorttitle, \SetConfTitle, \arcsec, \arcdeg, \indexauthor, \resumen, \shortauthor, \altaffilmark, \dateenglish, \listofauthors, \addkeyword, \altaffiltext, \captionsenglish].
92977 2013-03-13 04:43:05 /0806/0806.2056 1040000[Align, \xymatrix, \ar]; 1 missing file[xy.sty].
92978 2013-03-13 04:42:55 /0806/0806.2043 010000[\mathinner].
92979 2013-03-13 04:42:50 /0806/0806.2054 220000[\apjl]; 1 missing file[aas_macros.sty].
92980 2013-03-13 04:42:40 /0806/0806.2027 2010000[\date].
92981 2013-03-13 04:42:33 /0806/0806.2034 330000[Align, \xymatrix, \ar].
92982 2013-03-13 04:42:21 /0806/0806.2032 030000[\extrasenglish, \dateenglish, \captionsenglish].
92983 2013-03-13 04:42:00 /0806/0806.2039 120000[\IEEEPARstart, {IEEEbiography}]; 1 missing file[IEEEtran.cls].
92984 2013-03-13 04:41:57 /0806/0806.2023 220000[\theappendix, \date].
92985 2013-03-13 04:41:51 /0806/0806.2042 110000[\linenumbers].
92986 2013-03-13 04:41:34 /0806/0806.2047 030000[\affil, \aap]; 1 missing file[asp2006.sty].
92987 2013-03-13 04:41:28 /0806/0806.2022 50120000[\endxy, Align, \xyoption, {@proof}, \dir, \crv, \xy, \ar]; 1 missing file[xy.sty].
92988 2013-03-13 04:40:38 /0806/0806.2007 1210000[\IEEEpeerreviewmaketitle]; 1 missing file[IEEEtran.cls].
92989 2013-03-13 04:40:00 /0806/0806.1987 4430000[{theacknowledgments}, \layoutstyle, \classification].
92990 2013-03-13 04:39:29 /0806/0806.2002 1620000[\epsfbox, \appendices]; 1 missing file[gGAF2e.cls].
92991 2013-03-13 04:39:21 /0806/0806.2001 1550000[{theacknowledgments}, \layoutstyle, \classification].
92992 2013-03-13 04:39:06 /0806/0806.1976 17280000[{lemma}, {theorem}, \pdfbookmark, \LastPageEnding, \Classification, \ArticleDates, {remark}, \AuthorNameForHeading, {proposition}, \Abstract, \ArticleName, \ShortArticleName, \FirstPageHeading, \Address, \Author, \Email, {corollary}, \Keywords].
92993 2013-03-13 04:39:06 /0806/0806.1978 820000[\theappendix, \displaylimits].
92994 2013-03-13 04:38:51 /0806/0806.1988 060000[\extrasenglish, {listing}, \dateenglish, \captionsenglish]; 1 missing file[listing.sty].
92995 2013-03-13 04:38:34 /0806/0806.1964 3910000[\psfrag].
92996 2013-03-13 04:38:09 /0806/0806.1949 13220000[\theorembodyfont, \theoremstyle].
92997 2013-03-13 04:38:05 /0806/0806.1948 5410000[\displaylimits].
92998 2013-03-13 04:37:36 /0806/0806.1926 6250000[\endxy, \xyoption, \crv, \xy]; 1 missing file[xy.sty].
92999 2013-03-13 04:36:49 /0806/0806.1961 010000[\ket].
93000 2013-03-13 04:36:44 /0806/0806.1935 5010000[@ ].
<<< >>>

[0] [200] [400] [600] [800] [1000] [1200] [1400] [1600] [1800] [2000] [2200] [2400] [2600] [2800] [3000] [3200] [3400] [3600] [3800] [4000] [4200] [4400] [4600] [4800] [5000] [5200] [5400] [5600] [5800] [6000] [6200] [6400] [6600] [6800] [7000] [7200] [7400] [7600] [7800] [8000] [8200] [8400] [8600] [8800] [9000] [9200] [9400] [9600] [9800] [10000] [10200] [10400] [10600] [10800] [11000] [11200] [11400] [11600] [11800] [12000] [12200] [12400] [12600] [12800] [13000] [13200] [13400] [13600] [13800] [14000] [14200] [14400] [14600] [14800] [15000] [15200] [15400] [15600] [15800] [16000] [16200] [16400] [16600] [16800] [17000] [17200] [17400] [17600] [17800] [18000] [18200] [18400] [18600] [18800] [19000] [19200] [19400] [19600] [19800] [20000] [20200] [20400] [20600] [20800] [21000] [21200] [21400] [21600] [21800] [22000] [22200] [22400] [22600] [22800] [23000] [23200] [23400] [23600] [23800] [24000] [24200] [24400] [24600] [24800] [25000] [25200] [25400] [25600] [25800] [26000] [26200] [26400] [26600] [26800] [27000] [27200] [27400] [27600] [27800] [28000] [28200] [28400] [28600] [28800] [29000] [29200] [29400] [29600] [29800] [30000] [30200] [30400] [30600] [30800] [31000] [31200] [31400] [31600] [31800] [32000] [32200] [32400] [32600] [32800] [33000] [33200] [33400] [33600] [33800] [34000] [34200] [34400] [34600] [34800] [35000] [35200] [35400] [35600] [35800] [36000] [36200] [36400] [36600] [36800] [37000] [37200] [37400] [37600] [37800] [38000] [38200] [38400] [38600] [38800] [39000] [39200] [39400] [39600] [39800] [40000] [40200] [40400] [40600] [40800] [41000] [41200] [41400] [41600] [41800] [42000] [42200] [42400] [42600] [42800] [43000] [43200] [43400] [43600] [43800] [44000] [44200] [44400] [44600] [44800] [45000] [45200] [45400] [45600] [45800] [46000] [46200] [46400] [46600] [46800] [47000] [47200] [47400] [47600] [47800] [48000] [48200] [48400] [48600] [48800] [49000] [49200] [49400] [49600] [49800] [50000] [50200] [50400] [50600] [50800] [51000] [51200] [51400] [51600] [51800] [52000] [52200] [52400] [52600] [52800] [53000] [53200] [53400] [53600] [53800] [54000] [54200] [54400] [54600] [54800] [55000] [55200] [55400] [55600] [55800] [56000] [56200] [56400] [56600] [56800] [57000] [57200] [57400] [57600] [57800] [58000] [58200] [58400] [58600] [58800] [59000] [59200] [59400] [59600] [59800] [60000] [60200] [60400] [60600] [60800] [61000] [61200] [61400] [61600] [61800] [62000] [62200] [62400] [62600] [62800] [63000] [63200] [63400] [63600] [63800] [64000] [64200] [64400] [64600] [64800] [65000] [65200] [65400] [65600] [65800] [66000] [66200] [66400] [66600] [66800] [67000] [67200] [67400] [67600] [67800] [68000] [68200] [68400] [68600] [68800] [69000] [69200] [69400] [69600] [69800] [70000] [70200] [70400] [70600] [70800] [71000] [71200] [71400] [71600] [71800] [72000] [72200] [72400] [72600] [72800] [73000] [73200] [73400] [73600] [73800] [74000] [74200] [74400] [74600] [74800] [75000] [75200] [75400] [75600] [75800] [76000] [76200] [76400] [76600] [76800] [77000] [77200] [77400] [77600] [77800] [78000] [78200] [78400] [78600] [78800] [79000] [79200] [79400] [79600] [79800] [80000] [80200] [80400] [80600] [80800] [81000] [81200] [81400] [81600] [81800] [82000] [82200] [82400] [82600] [82800] [83000] [83200] [83400] [83600] [83800] [84000] [84200] [84400] [84600] [84800] [85000] [85200] [85400] [85600] [85800] [86000] [86200] [86400] [86600] [86800] [87000] [87200] [87400] [87600] [87800] [88000] [88200] [88400] [88600] [88800] [89000] [89200] [89400] [89600] [89800] [90000] [90200] [90400] [90600] [90800] [91000] [91200] [91400] [91600] [91800] [92000] [92200] [92400] [92600] [92800] [93000] [93200] [93400] [93600] [93800] [94000] [94200] [94400] [94600] [94800] [95000] [95200] [95400] [95600] [95800] [96000] [96200] [96400] [96600] [96800] [97000] [97200] [97400] [97600] [97800] [98000] [98200] [98400] [98600] [98800] [99000] [99200] [99400] [99600] [99800] [100000] [100200] [100400] [100600] [100800] [101000] [101200] [101400] [101600] [101800] [102000] [102200] [102400] [102600] [102800] [103000] [103200] [103400] [103600] [103800] [104000] [104200] [104400] [104600] [104800] [105000] [105200] [105400] [105600] [105800] [106000] [106200] [106400] [106600] [106800] [107000] [107200] [107400] [107600] [107800] [108000] [108200] [108400] [108600] [108800] [109000] [109200] [109400] [109600] [109800] [110000] [110200] [110400] [110600] [110800] [111000] [111200] [111400] [111600] [111800] [112000] [112200] [112400] [112600] [112800] [113000] [113200] [113400] [113600] [113800] [114000] [114200] [114400] [114600] [114800] [115000] [115200] [115400] [115600] [115800] [116000] [116200] [116400] [116600] [116800] [117000] [117200] [117400] [117600] [117800] [118000] [118200] [118400] [118600] [118800] [119000] [119200] [119400] [119600] [119800] [120000] [120200] [120400] [120600] [120800] [121000] [121200] [121400] [121600] [121800] [122000] [122200] [122400] [122600] [122800] [123000] [123200] [123400] [123600] [123800] [124000] [124200] [124400] [124600] [124800] [125000] [125200] [125400] [125600] [125800] [126000] [126200] [126400] [126600] [126800] [127000] [127200] [127400] [127600] [127800] [128000] [128200] [128400] [128600] [128800] [129000] [129200] [129400] [129600] [129800] [130000] [130200] [130400] [130600] [130800] [131000] [131200] [131400] [131600] [131800] [132000] [132200] [132400] [132600] [132800] [133000] [133200] [133400] [133600] [133800] [134000] [134200] [134400] [134600] [134800] [135000] [135200] [135400] [135600] [135800] [136000] [136200] [136400] [136600] [136800] [137000] [137200] [137400] [137600] [137800] [138000] [138200] [138400] [138600] [138800] [139000] [139200] [139400] [139600] [139800] [140000] [140200] [140400] [140600] [140800] [141000] [141200] [141400] [141600] [141800] [142000] [142200] [142400] [142600] [142800] [143000] [143200] [143400] [143600] [143800] [144000] [144200] [144400] [144600] [144800] [145000] [145200] [145400] [145600] [145800] [146000] [146200] [146400] [146600] [146800] [147000] [147200] [147400] [147600] [147800] [148000] [148200] [148400] [148600] [148800] [149000] [149200] [149400] [149600] [149800] [150000] [150200] [150400] [150600] [150800] [151000] [151200] [151400] [151600] [151800] [152000] [152200] [152400] [152600] [152800] [153000] [153200] [153400] [153600] [153800] [154000] [154200] [154400] [154600] [154800] [155000] [155200] [155400] [155600] [155800] [156000] [156200] [156400] [156600] [156800] [157000] [157200] [157400] [157600] [157800] [158000] [158200] [158400] [158600] [158800] [159000] [159200] [159400] [159600] [159800] [160000] [160200] [160400] [160600] [160800] [161000] [161200] [161400] [161600] [161800] [162000] [162200] [162400] [162600] [162800] [163000] [163200] [163400] [163600] [163800] [164000] [164200] [164400] [164600]
 
  The service has been written by
Heinrich Stamerjohanns